LICA Airport Information

Runway Information
Runway 10 Length 7920 ft width 148 ft
Elevation 20 ft Threshold 348 ft Heading 99
Runway 28 Length 7920 ft Width 148 ft
Elevation 39 ft Threshold 351 ft Heading 279
Airport Frequencies
Type APP Name APP Frequency 118.8 MHZ
Type TWR Name TWR Frequency 119.7 MHZ
Airport Navaids
Type VOR-DME Name Lamezia Terme Frequency 112500 KHZ
Airport Weather Information & NOTAM
ADDS - METARS form results

(1959 UTC 23 April 2019)
Data provider http://aviationweather.gov/metar/data/
 
Forecast for: LICA (LAMEZIA TERME , IT)
Text: TAF LICA 231700Z 2318/2418 07012KT 7000 SCT030
Forecast period: 1800 UTC 23 April 2019 to 1800 UTC 24 April 2019
Forecast type: FROM: standard forecast or significant change
Winds: from the ENE (70 degrees) at 14 MPH (12 knots; 6.2 m/s)
Visibility: 4 miles (7 km)
Ceiling: at least 12,000 feet AGL
Clouds: scattered clouds at 3000 feet AGL
Weather: no significant weather forecast for this period